createdAt,value
2018-04-30T00:01:30.146Z,3.73
2018-04-30T00:03:56.271Z,7.50
2018-04-30T00:06:22.394Z,4.90
2018-04-30T00:08:48.521Z,7.80
2018-04-30T00:11:14.684Z,7.30
2018-04-30T00:13:40.773Z,15.07
2018-04-30T00:16:06.913Z,26.27
2018-04-30T00:18:33.058Z,22.30
2018-04-30T00:20:59.189Z,8.07
2018-04-30T00:23:25.344Z,14.83
2018-04-30T00:25:51.477Z,17.07
2018-04-30T00:28:17.574Z,18.77
2018-04-30T00:30:43.692Z,5.67
2018-04-30T00:33:09.789Z,12.40
2018-04-30T00:35:35.897Z,26.83
2018-04-30T00:38:01.989Z,21.60
2018-04-30T00:40:28.829Z,25.27
2018-04-30T00:42:55.884Z,5.43
2018-04-30T00:45:22.726Z,13.20
2018-04-30T00:47:49.604Z,14.00
2018-04-30T00:50:15.789Z,17.27
2018-04-30T00:52:42.657Z,29.10
2018-04-30T00:55:08.769Z,15.23
2018-04-30T00:57:35.655Z,20.47
2018-04-30T01:00:01.796Z,9.00
2018-04-30T01:02:27.941Z,12.80
2018-04-30T01:04:54.069Z,8.03
2018-04-30T01:07:20.192Z,5.73
2018-04-30T01:09:46.295Z,8.27
2018-04-30T01:12:12.413Z,8.40
2018-04-30T01:14:38.518Z,3.53
2018-04-30T01:17:04.630Z,11.97
2018-04-30T01:19:31.491Z,10.70
2018-04-30T01:21:57.605Z,5.73
2018-04-30T01:24:23.739Z,8.50
2018-04-30T01:26:49.857Z,8.73
2018-04-30T01:29:16.728Z,6.20
2018-04-30T01:31:44.435Z,9.40
2018-04-30T01:34:14.126Z,6.30
2018-04-30T01:36:41.995Z,10.73
2018-04-30T01:39:09.011Z,5.27
2018-04-30T01:41:36.907Z,6.93
2018-04-30T01:44:03.507Z,14.17
2018-04-30T01:46:30.457Z,6.57
2018-04-30T01:49:04.138Z,13.53
2018-04-30T01:51:32.339Z,15.53
2018-04-30T01:54:00.777Z,8.10
2018-04-30T01:56:27.566Z,17.33
2018-04-30T01:58:56.184Z,10.30
2018-04-30T02:01:23.355Z,10.70
2018-04-30T02:03:50.476Z,17.43
2018-04-30T02:06:17.609Z,9.40
2018-04-30T02:08:44.417Z,9.13
2018-04-30T02:11:14.546Z,6.07
2018-04-30T02:13:42.006Z,7.10
2018-04-30T02:16:08.352Z,19.30
2018-04-30T02:18:38.754Z,5.57
2018-04-30T02:21:04.959Z,2.90
2018-04-30T02:23:34.511Z,10.77
2018-04-30T02:26:01.502Z,17.07
2018-04-30T02:28:30.433Z,4.73
2018-04-30T02:30:57.438Z,7.23
2018-04-30T02:33:24.467Z,8.03
2018-04-30T02:35:52.583Z,10.10
2018-04-30T02:38:19.103Z,3.63
2018-04-30T02:40:49.082Z,13.93
2018-04-30T02:43:17.401Z,5.50
2018-04-30T02:45:44.103Z,4.90
2018-04-30T02:48:10.375Z,8.43
2018-04-30T02:50:38.639Z,7.30
2018-04-30T02:53:07.259Z,12.73
2018-04-30T02:55:37.306Z,6.50
2018-04-30T02:58:04.039Z,2.60
2018-04-30T03:00:31.820Z,4.50
2018-04-30T03:03:01.332Z,8.33
2018-04-30T03:05:32.151Z,3.53
2018-04-30T03:08:05.590Z,2.30
2018-04-30T03:10:36.738Z,7.07
2018-04-30T03:13:05.543Z,3.90
2018-04-30T03:15:32.015Z,11.93
2018-04-30T03:17:59.007Z,16.93
2018-04-30T03:20:27.411Z,4.97
2018-04-30T03:23:01.540Z,3.80
2018-04-30T03:25:31.509Z,15.87
2018-04-30T03:28:03.811Z,12.53
2018-04-30T03:30:35.604Z,6.40
2018-04-30T03:33:08.388Z,8.80
2018-04-30T03:35:36.862Z,14.93
2018-04-30T03:38:05.681Z,3.80
2018-04-30T03:40:40.666Z,3.13
2018-04-30T03:43:08.999Z,14.70
2018-04-30T03:45:38.452Z,14.93
2018-04-30T03:48:06.055Z,4.30
2018-04-30T03:50:34.646Z,1.67
2018-04-30T03:53:04.737Z,6.10
2018-04-30T03:55:33.916Z,8.47
2018-04-30T03:58:03.705Z,3.03
2018-04-30T04:00:43.437Z,6.47
2018-04-30T04:03:23.076Z,4.83
2018-04-30T04:06:00.853Z,5.47
2018-04-30T04:08:28.018Z,8.13
2018-04-30T04:10:55.661Z,11.33
2018-04-30T04:13:22.504Z,1.90
2018-04-30T04:15:51.305Z,1.93
2018-04-30T04:18:20.625Z,4.50
2018-04-30T04:20:47.927Z,6.33
2018-04-30T04:23:14.733Z,4.30
2018-04-30T04:25:41.433Z,4.27
2018-04-30T04:28:08.519Z,3.20
2018-04-30T04:30:35.612Z,1.47
2018-04-30T04:33:01.883Z,0.80
2018-04-30T04:35:29.056Z,0.80
2018-04-30T04:37:56.255Z,1.67
2018-04-30T04:40:23.292Z,0.90
2018-04-30T04:42:51.325Z,1.07
2018-04-30T04:45:17.960Z,0.63
2018-04-30T04:47:44.974Z,1.43
2018-04-30T04:50:12.478Z,1.10
2018-04-30T04:52:39.545Z,1.23
2018-04-30T04:55:08.192Z,0.60
2018-04-30T04:57:36.625Z,0.70
2018-04-30T05:00:03.871Z,0.60
2018-04-30T05:02:32.230Z,1.17
2018-04-30T05:05:00.697Z,4.33
2018-04-30T05:07:29.561Z,0.70
2018-04-30T05:09:57.459Z,1.67
2018-04-30T05:12:24.838Z,0.67
2018-04-30T05:14:53.441Z,2.27
2018-04-30T07:20:10.867Z,0.50
2018-04-30T07:22:37.925Z,0.60
2018-04-30T07:25:05.029Z,0.60
2018-04-30T07:27:31.281Z,0.70
2018-04-30T07:29:57.702Z,0.60
2018-04-30T07:35:19.797Z,0.80
2018-04-30T07:37:46.628Z,0.60
2018-04-30T07:40:16.790Z,1.10
2018-04-30T07:42:42.930Z,0.63
2018-04-30T07:45:09.335Z,0.60
2018-04-30T07:47:35.846Z,0.60
2018-04-30T07:50:02.794Z,0.70
2018-04-30T07:52:30.048Z,0.70
2018-04-30T07:55:10.561Z,0.70
2018-04-30T07:57:36.999Z,0.60
2018-04-30T08:00:08.480Z,0.80
2018-04-30T08:02:35.021Z,0.57
2018-04-30T08:05:01.244Z,0.60
2018-04-30T08:07:27.457Z,0.63
2018-04-30T08:09:53.726Z,0.60
2018-04-30T08:12:21.745Z,0.60
2018-04-30T08:14:47.911Z,0.60
2018-04-30T08:17:14.246Z,0.77
2018-04-30T08:19:40.394Z,0.60
2018-04-30T08:22:06.993Z,0.60
2018-04-30T08:24:33.313Z,0.60
2018-04-30T08:26:59.681Z,0.60
2018-04-30T08:29:26.741Z,0.70
2018-04-30T08:31:53.197Z,0.60
2018-04-30T08:34:19.337Z,0.60
2018-04-30T08:36:45.880Z,0.60
2018-04-30T08:39:12.197Z,0.90
2018-04-30T08:41:39.414Z,0.80
2018-04-30T08:44:06.461Z,1.37
2018-04-30T08:46:34.031Z,0.60
2018-04-30T08:49:01.162Z,0.57
2018-04-30T08:51:27.445Z,1.00
2018-04-30T08:53:53.705Z,0.60
2018-04-30T08:56:20.123Z,0.50
2018-04-30T08:58:50.976Z,0.57
2018-04-30T09:01:19.435Z,0.50
2018-04-30T09:03:54.328Z,0.70
2018-04-30T09:09:30.528Z,0.60
2018-04-30T09:12:04.812Z,0.70
2018-04-30T09:14:42.469Z,0.53
2018-04-30T09:17:10.641Z,1.50
2018-04-30T09:19:39.646Z,1.10
2018-04-30T09:22:14.011Z,0.60
2018-04-30T09:27:30.321Z,0.50
2018-04-30T09:29:59.445Z,0.60
2018-04-30T09:32:29.998Z,0.60
2018-04-30T09:37:36.006Z,0.50
2018-04-30T09:40:06.901Z,0.60
2018-04-30T09:42:39.850Z,0.60
2018-04-30T09:45:11.932Z,0.60
2018-04-30T09:47:41.827Z,0.60
2018-04-30T10:14:25.794Z,1.10
2018-04-30T10:19:50.354Z,2.60
2018-04-30T10:22:23.470Z,1.23
2018-04-30T11:21:37.868Z,2.10
2018-04-30T11:24:15.967Z,2.57
2018-04-30T11:26:42.094Z,1.20
2018-04-30T11:29:08.267Z,1.23
2018-04-30T11:31:34.422Z,2.87
2018-04-30T11:34:00.684Z,2.53
2018-04-30T11:36:26.801Z,1.40
2018-04-30T11:38:52.921Z,2.27
2018-04-30T11:41:19.025Z,1.70
2018-04-30T11:43:45.177Z,1.83
2018-04-30T11:46:11.322Z,2.57
2018-04-30T11:48:38.202Z,2.57
2018-04-30T11:51:04.364Z,1.10
2018-04-30T11:53:30.516Z,4.17
2018-04-30T11:55:56.854Z,2.90
2018-04-30T11:58:23.741Z,1.40
2018-04-30T12:00:49.958Z,4.40
2018-04-30T12:03:16.065Z,1.60
2018-04-30T12:05:42.962Z,1.30
2018-04-30T12:08:09.097Z,1.63
2018-04-30T12:10:35.193Z,1.00
2018-04-30T12:13:01.313Z,0.80
2018-04-30T12:15:27.441Z,1.37
2018-04-30T12:17:53.573Z,1.37
2018-04-30T12:20:19.697Z,3.57
2018-04-30T12:22:45.849Z,0.93
2018-04-30T12:25:11.989Z,1.43
2018-04-30T12:27:38.174Z,1.07
2018-04-30T12:30:04.478Z,0.80
2018-04-30T12:32:30.792Z,5.63
2018-04-30T12:34:57.881Z,2.60
2018-04-30T12:37:24.095Z,1.20
2018-04-30T12:39:50.248Z,4.27
2018-04-30T12:42:16.581Z,1.60
2018-04-30T12:44:42.826Z,5.90
2018-04-30T12:47:09.061Z,5.70
2018-04-30T12:49:35.258Z,1.40
2018-04-30T12:52:02.129Z,4.50
2018-04-30T12:54:28.265Z,3.67
2018-04-30T12:56:54.784Z,1.63
2018-04-30T12:59:20.921Z,1.67
2018-04-30T13:01:47.070Z,4.73
2018-04-30T13:04:14.111Z,1.27
2018-04-30T13:06:40.800Z,2.80
2018-04-30T13:09:07.049Z,1.23
2018-04-30T13:11:34.017Z,0.83
2018-04-30T13:14:00.186Z,0.87
2018-04-30T13:16:26.357Z,2.03
2018-04-30T13:18:52.485Z,2.83
2018-04-30T13:21:18.673Z,0.80
2018-04-30T13:23:44.850Z,0.90
2018-04-30T13:26:10.965Z,1.57
2018-04-30T13:28:37.224Z,5.80
2018-04-30T13:31:03.886Z,5.00
2018-04-30T13:36:18.258Z,2.10
2018-04-30T13:38:47.007Z,2.50
2018-04-30T13:41:13.307Z,2.70
2018-04-30T13:43:39.710Z,2.90
2018-04-30T13:46:06.602Z,6.20
2018-04-30T13:48:33.652Z,1.13
2018-04-30T13:51:00.214Z,3.83
2018-04-30T13:53:26.541Z,4.37
2018-04-30T13:55:53.544Z,1.27
2018-04-30T13:58:19.919Z,1.37
2018-04-30T14:00:46.115Z,4.37
2018-04-30T14:03:12.419Z,1.30
2018-04-30T14:05:38.711Z,7.33
2018-04-30T14:08:05.040Z,6.83
2018-04-30T14:10:32.093Z,2.77
2018-04-30T14:12:58.577Z,3.37
2018-04-30T14:15:25.924Z,1.17
2018-04-30T14:17:52.430Z,0.80
2018-04-30T14:20:19.169Z,4.50
2018-04-30T14:22:47.084Z,5.03
2018-04-30T14:25:14.613Z,1.00
2018-04-30T14:27:41.055Z,5.80
2018-04-30T14:30:07.897Z,1.33
2018-04-30T14:32:34.633Z,10.30
2018-04-30T14:35:01.171Z,2.00
2018-04-30T14:37:28.078Z,2.07
2018-04-30T14:39:54.769Z,4.50
2018-04-30T14:42:26.857Z,1.40
2018-04-30T14:44:55.120Z,1.20
2018-04-30T14:47:21.443Z,0.80
2018-04-30T14:49:49.056Z,1.20
2018-04-30T14:52:17.484Z,1.00
2018-04-30T14:54:44.255Z,0.70
2018-04-30T14:57:12.729Z,3.27
2018-04-30T14:59:41.038Z,2.27
2018-04-30T15:02:08.971Z,2.93
2018-04-30T15:04:35.352Z,1.47
2018-04-30T15:07:03.379Z,3.03
2018-04-30T15:09:30.480Z,1.80
2018-04-30T15:11:57.263Z,1.07
2018-04-30T15:14:23.801Z,2.20
2018-04-30T15:16:50.059Z,3.00
2018-04-30T15:19:17.127Z,1.20
2018-04-30T15:21:43.665Z,7.97
2018-04-30T15:24:10.274Z,0.70
2018-04-30T15:26:36.698Z,1.13
2018-04-30T15:29:03.179Z,1.10
2018-04-30T15:31:29.527Z,2.03
2018-04-30T15:33:56.638Z,1.17
2018-04-30T15:36:23.058Z,0.73
2018-04-30T15:38:49.457Z,1.03
2018-04-30T15:41:15.968Z,2.90
2018-04-30T15:43:42.427Z,0.70
2018-04-30T15:46:08.930Z,1.13
2018-04-30T15:48:36.076Z,3.77
2018-04-30T15:51:03.424Z,1.47
2018-04-30T15:53:31.640Z,9.43
2018-04-30T15:55:58.008Z,0.80
2018-04-30T15:58:24.352Z,2.07
2018-04-30T16:00:51.393Z,5.13
2018-04-30T16:03:17.855Z,1.60
2018-04-30T16:05:45.735Z,2.80
2018-04-30T16:08:13.101Z,1.03
2018-04-30T16:10:39.283Z,0.90
2018-04-30T16:13:05.391Z,1.83
2018-04-30T16:15:31.748Z,2.20
2018-04-30T16:17:57.872Z,1.53
2018-04-30T16:20:24.079Z,3.67
2018-04-30T16:22:50.152Z,0.80
2018-04-30T16:25:16.508Z,7.03
2018-04-30T16:27:42.738Z,1.43
2018-04-30T16:30:09.049Z,4.33
2018-04-30T16:32:35.939Z,1.10
2018-04-30T16:35:06.046Z,1.10
2018-04-30T16:37:32.316Z,1.17
2018-04-30T16:39:58.607Z,0.70
2018-04-30T16:42:25.372Z,1.00
2018-04-30T16:44:51.633Z,1.10
2018-04-30T16:47:18.351Z,0.80
2018-04-30T16:49:45.630Z,0.70
2018-04-30T16:52:12.767Z,1.23
2018-04-30T16:54:40.098Z,0.77
2018-04-30T16:57:08.290Z,1.93
2018-04-30T16:59:35.313Z,1.00
2018-04-30T17:02:03.267Z,1.00
2018-04-30T17:04:30.362Z,0.80
2018-04-30T17:06:56.827Z,0.70
2018-04-30T17:09:23.116Z,3.67
2018-04-30T17:11:49.669Z,0.80
2018-04-30T17:14:16.213Z,1.33
2018-04-30T17:16:43.323Z,3.53
2018-04-30T17:19:09.596Z,1.17
2018-04-30T17:21:35.804Z,1.27
2018-04-30T17:24:02.394Z,1.37
2018-04-30T17:26:28.951Z,2.03
2018-04-30T17:28:56.100Z,1.63
2018-04-30T17:31:22.331Z,3.70
2018-04-30T17:33:48.635Z,2.60
2018-04-30T17:36:15.173Z,4.03
2018-04-30T17:38:41.778Z,2.30
2018-04-30T17:41:08.986Z,4.33
2018-04-30T17:43:35.481Z,4.30
2018-04-30T17:46:02.841Z,1.93
2018-04-30T17:48:30.533Z,0.77
2018-04-30T17:50:57.630Z,2.10
2018-04-30T17:53:24.009Z,1.30
2018-04-30T17:55:50.734Z,1.10
2018-04-30T17:58:17.129Z,7.40
2018-04-30T18:00:44.303Z,1.10
2018-04-30T18:05:43.874Z,1.73
2018-04-30T18:08:10.342Z,1.63
2018-04-30T18:10:37.267Z,3.73
2018-04-30T18:13:03.639Z,1.20
2018-04-30T18:15:29.915Z,1.57
2018-04-30T18:17:56.362Z,0.80
2018-04-30T18:20:22.827Z,1.20
2018-04-30T18:22:49.460Z,0.70
2018-04-30T18:25:16.462Z,1.60
2018-04-30T18:27:45.003Z,1.53
2018-04-30T18:30:11.471Z,0.80
2018-04-30T18:32:37.951Z,4.30
2018-04-30T18:35:04.507Z,11.40
2018-04-30T18:37:31.979Z,2.10
2018-04-30T18:39:58.311Z,5.63
2018-04-30T18:42:24.776Z,2.40
2018-04-30T18:44:51.057Z,1.30
2018-04-30T18:47:17.627Z,1.00
2018-04-30T18:49:44.904Z,2.20
2018-04-30T18:52:11.226Z,1.43
2018-04-30T18:54:37.579Z,2.20
2018-04-30T18:57:04.565Z,2.03
2018-04-30T18:59:30.992Z,2.13
2018-04-30T19:01:57.400Z,1.03
2018-04-30T19:04:23.694Z,2.87
2018-04-30T19:06:51.112Z,1.93
2018-04-30T19:09:17.406Z,0.80
2018-04-30T19:11:43.690Z,1.37
2018-04-30T19:14:10.086Z,1.03
2018-04-30T19:16:37.171Z,2.57
2018-04-30T19:19:03.586Z,2.40
2018-04-30T19:21:29.809Z,1.67
2018-04-30T19:23:56.792Z,3.40
2018-04-30T19:26:22.997Z,1.40
2018-04-30T19:28:49.455Z,4.10
2018-04-30T19:31:15.721Z,1.20
2018-04-30T19:33:42.076Z,0.70
2018-04-30T19:36:08.319Z,1.53
2018-04-30T19:38:34.573Z,0.60
2018-04-30T19:41:00.757Z,1.00
2018-04-30T19:43:27.349Z,0.90
2018-04-30T19:45:53.859Z,1.13
2018-04-30T19:48:20.249Z,0.60
2018-04-30T19:50:46.831Z,1.87
2018-04-30T19:53:13.914Z,1.73
2018-04-30T19:55:40.423Z,3.80
2018-04-30T20:03:18.637Z,2.13
2018-04-30T20:05:46.040Z,3.07
2018-04-30T20:08:12.253Z,1.60
2018-04-30T20:10:38.538Z,0.63
2018-04-30T20:15:39.522Z,1.10
2018-04-30T20:18:06.835Z,0.83
2018-04-30T20:20:33.235Z,0.90
2018-04-30T20:23:00.773Z,2.70
2018-04-30T20:25:27.111Z,2.80
2018-04-30T20:27:53.326Z,1.00
2018-04-30T20:30:19.670Z,1.33
2018-04-30T20:32:46.129Z,1.20
2018-04-30T20:35:12.351Z,0.80
2018-04-30T20:37:38.728Z,0.80
2018-04-30T20:40:05.338Z,0.80
2018-04-30T20:42:32.613Z,2.27
2018-04-30T20:44:59.050Z,4.63
2018-04-30T20:47:25.378Z,5.20
2018-04-30T20:49:51.883Z,0.80
2018-04-30T20:52:18.154Z,1.30
2018-04-30T20:54:45.355Z,1.83
2018-04-30T20:57:12.045Z,4.33
2018-04-30T20:59:38.299Z,2.33
2018-04-30T21:02:04.582Z,2.00
2018-04-30T21:04:30.729Z,2.60
2018-04-30T21:06:56.994Z,1.67
2018-04-30T21:09:23.530Z,0.93
2018-04-30T21:11:49.666Z,0.80
2018-04-30T21:14:15.976Z,0.70
2018-04-30T21:16:42.182Z,0.80
2018-04-30T21:19:09.123Z,1.13
2018-04-30T21:21:35.458Z,4.53
2018-04-30T21:24:01.853Z,0.80
2018-04-30T21:26:28.352Z,1.00
2018-04-30T21:28:54.496Z,1.27
2018-04-30T21:31:21.749Z,2.70
2018-04-30T21:33:47.866Z,7.27
2018-04-30T21:36:14.047Z,1.83
2018-04-30T21:38:40.145Z,1.47
2018-04-30T21:41:06.597Z,7.23
2018-04-30T21:43:32.706Z,6.20
2018-04-30T21:45:58.863Z,1.53
2018-04-30T21:48:24.966Z,2.20
2018-04-30T21:50:51.085Z,1.80
2018-04-30T21:53:17.280Z,1.13
2018-04-30T21:55:43.703Z,2.87
2018-04-30T21:58:10.581Z,3.20
2018-04-30T22:00:36.781Z,1.00
2018-04-30T22:03:03.219Z,0.90
2018-04-30T22:05:29.329Z,3.27
2018-04-30T22:07:55.453Z,5.90
2018-04-30T22:10:22.308Z,0.90
2018-04-30T22:12:48.509Z,3.43
2018-04-30T22:15:14.641Z,1.10
2018-04-30T22:17:40.912Z,4.37
2018-04-30T22:20:08.026Z,1.73
2018-04-30T22:22:35.021Z,1.17
2018-04-30T22:25:01.177Z,0.80
2018-04-30T22:27:27.308Z,1.00
2018-04-30T22:29:54.132Z,2.10
2018-04-30T22:32:20.554Z,0.80
2018-04-30T22:34:46.890Z,1.47
2018-04-30T22:37:13.875Z,0.80
2018-04-30T22:39:40.414Z,1.70
2018-04-30T22:42:06.541Z,1.20
2018-04-30T22:44:32.715Z,1.13
2018-04-30T22:46:58.817Z,0.73
2018-04-30T22:49:25.703Z,0.63
2018-04-30T22:51:51.809Z,0.80
2018-04-30T22:54:17.903Z,2.57
2018-04-30T22:56:44.741Z,0.70
2018-04-30T22:59:11.589Z,0.90
2018-04-30T23:01:38.452Z,0.80
2018-04-30T23:04:04.610Z,0.87
2018-04-30T23:06:30.705Z,0.83
2018-04-30T23:08:56.828Z,0.90
2018-04-30T23:11:23.188Z,0.70
2018-04-30T23:13:49.376Z,1.00
2018-04-30T23:16:16.310Z,0.80
2018-04-30T23:18:43.229Z,5.53
2018-04-30T23:21:10.761Z,0.90
2018-04-30T23:23:36.887Z,0.70
2018-04-30T23:26:03.441Z,2.50
2018-04-30T23:28:29.581Z,0.73
2018-04-30T23:30:55.718Z,0.80
2018-04-30T23:33:21.850Z,0.83
2018-04-30T23:35:47.960Z,0.67
2018-04-30T23:38:14.737Z,0.90
2018-04-30T23:40:40.920Z,0.90
2018-04-30T23:43:07.070Z,3.57
2018-04-30T23:45:33.167Z,3.40
2018-04-30T23:47:59.294Z,0.70
2018-04-30T23:50:25.469Z,1.73
2018-04-30T23:52:51.689Z,1.03
2018-04-30T23:55:18.544Z,2.07
2018-04-30T23:57:45.445Z,0.90
